sensor_id;sensor_type;location;lat;lon;timestamp;pressure;altitude;pressure_sealevel;temperature;humidity
9423;BME280;65863;49.506;10.400;2023-03-13T00:01:44;97465.41;;;5.93;83.00
9423;BME280;65863;49.506;10.400;2023-03-13T00:04:28;97447.38;;;5.81;83.04
9423;BME280;65863;49.506;10.400;2023-03-13T00:07:12;97459.97;;;6.01;83.09
9423;BME280;65863;49.506;10.400;2023-03-13T00:09:56;97457.81;;;6.20;82.93
9423;BME280;65863;49.506;10.400;2023-03-13T00:12:40;97467.91;;;6.37;83.02
9423;BME280;65863;49.506;10.400;2023-03-13T00:15:24;97468.53;;;6.43;83.05
9423;BME280;65863;49.506;10.400;2023-03-13T00:18:08;97459.50;;;6.50;83.06
9423;BME280;65863;49.506;10.400;2023-03-13T00:21:01;97477.31;;;6.61;82.83
9423;BME280;65863;49.506;10.400;2023-03-13T00:23:45;97483.25;;;6.78;82.16
9423;BME280;65863;49.506;10.400;2023-03-13T00:26:29;97445.53;;;6.64;82.25
9423;BME280;65863;49.506;10.400;2023-03-13T00:29:13;97447.78;;;6.65;81.82
9423;BME280;65863;49.506;10.400;2023-03-13T00:31:57;97474.84;;;6.92;81.79
9423;BME280;65863;49.506;10.400;2023-03-13T00:34:42;97475.06;;;6.94;81.01
9423;BME280;65863;49.506;10.400;2023-03-13T00:37:26;97443.00;;;6.87;80.71
9423;BME280;65863;49.506;10.400;2023-03-13T00:40:12;97454.78;;;6.93;80.78
9423;BME280;65863;49.506;10.400;2023-03-13T00:42:55;97467.84;;;6.98;80.37
9423;BME280;65863;49.506;10.400;2023-03-13T00:45:40;97447.41;;;6.82;80.42
9423;BME280;65863;49.506;10.400;2023-03-13T00:48:25;97459.63;;;6.93;80.22
9423;BME280;65863;49.506;10.400;2023-03-13T00:51:11;97454.50;;;6.83;79.89
9423;BME280;65863;49.506;10.400;2023-03-13T00:53:56;97468.22;;;6.95;80.20
9423;BME280;65863;49.506;10.400;2023-03-13T00:56:44;97441.06;;;6.61;80.17
9423;BME280;65863;49.506;10.400;2023-03-13T00:59:28;97403.97;;;6.39;80.34
9423;BME280;65863;49.506;10.400;2023-03-13T01:02:12;97451.31;;;6.66;79.90
9423;BME280;65863;49.506;10.400;2023-03-13T01:04:56;97411.59;;;6.38;80.13
9423;BME280;65863;49.506;10.400;2023-03-13T01:07:41;97427.13;;;6.47;80.34
9423;BME280;65863;49.506;10.400;2023-03-13T01:10:25;97412.88;;;6.37;81.01
9423;BME280;65863;49.506;10.400;2023-03-13T01:13:09;97403.78;;;6.24;80.94
9423;BME280;65863;49.506;10.400;2023-03-13T01:15:53;97418.75;;;6.47;81.28
9423;BME280;65863;49.506;10.400;2023-03-13T01:18:38;97429.22;;;6.68;81.35
9423;BME280;65863;49.506;10.400;2023-03-13T01:21:23;97434.13;;;6.75;81.35
9423;BME280;65863;49.506;10.400;2023-03-13T01:24:08;97428.09;;;6.84;81.11
9423;BME280;65863;49.506;10.400;2023-03-13T01:26:52;97396.56;;;6.76;81.13
9423;BME280;65863;49.506;10.400;2023-03-13T01:29:36;97376.44;;;6.70;80.91
9423;BME280;65863;49.506;10.400;2023-03-13T01:32:20;97412.59;;;6.97;80.48
9423;BME280;65863;49.506;10.400;2023-03-13T01:35:04;97413.19;;;7.03;80.43
9423;BME280;65863;49.506;10.400;2023-03-13T01:37:48;97368.75;;;6.84;80.81
9423;BME280;65863;49.506;10.400;2023-03-13T01:40:59;97402.13;;;7.11;80.27
9423;BME280;65863;49.506;10.400;2023-03-13T01:43:43;97406.06;;;7.15;80.45
9423;BME280;65863;49.506;10.400;2023-03-13T01:46:29;97399.81;;;7.22;80.08
9423;BME280;65863;49.506;10.400;2023-03-13T01:49:28;97384.88;;;7.20;79.92
9423;BME280;65863;49.506;10.400;2023-03-13T01:52:35;97354.53;;;7.16;79.86
9423;BME280;65863;49.506;10.400;2023-03-13T01:55:27;97372.97;;;7.40;79.40
9423;BME280;65863;49.506;10.400;2023-03-13T01:58:12;97348.72;;;7.35;79.42
9423;BME280;65863;49.506;10.400;2023-03-13T02:00:57;97342.78;;;7.39;79.10
9423;BME280;65863;49.506;10.400;2023-03-13T02:03:42;97340.59;;;7.45;78.53
9423;BME280;65863;49.506;10.400;2023-03-13T02:06:28;97332.03;;;7.43;78.36
9423;BME280;65863;49.506;10.400;2023-03-13T02:09:18;97357.28;;;7.58;78.13
9423;BME280;65863;49.506;10.400;2023-03-13T02:12:09;97363.44;;;7.65;78.04
9423;BME280;65863;49.506;10.400;2023-03-13T02:14:57;97331.13;;;7.48;78.15
9423;BME280;65863;49.506;10.400;2023-03-13T02:17:43;97342.53;;;7.58;78.49
9423;BME280;65863;49.506;10.400;2023-03-13T02:20:27;97340.53;;;7.66;78.21
9423;BME280;65863;49.506;10.400;2023-03-13T02:26:05;97327.63;;;7.55;78.31
9423;BME280;65863;49.506;10.400;2023-03-13T02:28:51;97322.53;;;7.75;78.17
9423;BME280;65863;49.506;10.400;2023-03-13T02:31:36;97294.09;;;7.55;78.24
9423;BME280;65863;49.506;10.400;2023-03-13T02:34:25;97314.13;;;7.75;78.33
9423;BME280;65863;49.506;10.400;2023-03-13T02:37:11;97326.34;;;7.93;77.74
9423;BME280;65863;49.506;10.400;2023-03-13T02:39:59;97287.44;;;7.58;77.89
9423;BME280;65863;49.506;10.400;2023-03-13T02:42:49;97288.22;;;7.67;77.69
9423;BME280;65863;49.506;10.400;2023-03-13T02:45:34;97283.38;;;7.67;77.96
9423;BME280;65863;49.506;10.400;2023-03-13T02:48:30;97210.59;;;7.29;77.84
9423;BME280;65863;49.506;10.400;2023-03-13T02:51:28;97285.75;;;8.00;77.88
9423;BME280;65863;49.506;10.400;2023-03-13T02:54:17;97274.19;;;7.96;77.54
9423;BME280;65863;49.506;10.400;2023-03-13T02:57:03;97243.00;;;7.76;77.72
9423;BME280;65863;49.506;10.400;2023-03-13T02:59:47;97269.72;;;8.00;77.97
9423;BME280;65863;49.506;10.400;2023-03-13T03:02:32;97186.44;;;7.39;77.88
9423;BME280;65863;49.506;10.400;2023-03-13T03:05:16;97243.63;;;7.90;77.76
9423;BME280;65863;49.506;10.400;2023-03-13T03:08:00;97239.50;;;7.83;77.59
9423;BME280;65863;49.506;10.400;2023-03-13T03:10:45;97259.31;;;8.08;77.65
9423;BME280;65863;49.506;10.400;2023-03-13T03:13:30;97242.13;;;7.97;77.17
9423;BME280;65863;49.506;10.400;2023-03-13T03:16:14;97232.44;;;7.98;77.56
9423;BME280;65863;49.506;10.400;2023-03-13T03:19:01;97210.47;;;7.94;77.03
9423;BME280;65863;49.506;10.400;2023-03-13T03:21:46;97250.81;;;8.30;76.88
9423;BME280;65863;49.506;10.400;2023-03-13T03:24:34;97250.00;;;8.14;76.60
9423;BME280;65863;49.506;10.400;2023-03-13T03:27:21;97242.34;;;8.06;76.82
9423;BME280;65863;49.506;10.400;2023-03-13T03:30:10;97244.25;;;8.12;76.50
9423;BME280;65863;49.506;10.400;2023-03-13T03:32:55;97250.72;;;7.99;76.73
9423;BME280;65863;49.506;10.400;2023-03-13T03:35:40;97238.00;;;7.82;76.92
9423;BME280;65863;49.506;10.400;2023-03-13T03:38:24;97242.84;;;7.89;77.13
9423;BME280;65863;49.506;10.400;2023-03-13T03:41:10;97222.72;;;7.83;77.57
9423;BME280;65863;49.506;10.400;2023-03-13T03:43:55;97225.72;;;7.85;77.35
9423;BME280;65863;49.506;10.400;2023-03-13T03:46:43;97227.97;;;7.95;77.19
9423;BME280;65863;49.506;10.400;2023-03-13T03:49:27;97215.84;;;7.92;77.31
9423;BME280;65863;49.506;10.400;2023-03-13T03:52:11;97216.81;;;7.95;77.13
9423;BME280;65863;49.506;10.400;2023-03-13T03:54:58;97200.19;;;7.81;77.19
9423;BME280;65863;49.506;10.400;2023-03-13T03:57:42;97199.13;;;8.00;77.11
9423;BME280;65863;49.506;10.400;2023-03-13T04:00:31;97206.59;;;8.13;76.91
9423;BME280;65863;49.506;10.400;2023-03-13T04:03:16;97222.47;;;8.33;76.78
9423;BME280;65863;49.506;10.400;2023-03-13T04:06:01;97204.38;;;8.19;76.94
9423;BME280;65863;49.506;10.400;2023-03-13T04:08:46;97206.28;;;8.47;77.05
9423;BME280;65863;49.506;10.400;2023-03-13T04:11:33;97222.16;;;8.52;77.03
9423;BME280;65863;49.506;10.400;2023-03-13T04:14:17;97197.50;;;8.35;77.17
9423;BME280;65863;49.506;10.400;2023-03-13T04:17:02;97191.16;;;8.42;77.55
9423;BME280;65863;49.506;10.400;2023-03-13T04:19:46;97178.66;;;8.20;78.04
9423;BME280;65863;49.506;10.400;2023-03-13T04:22:30;97177.34;;;8.21;78.24
9423;BME280;65863;49.506;10.400;2023-03-13T04:25:15;97179.97;;;8.27;79.01
9423;BME280;65863;49.506;10.400;2023-03-13T04:28:00;97202.91;;;8.25;79.14
9423;BME280;65863;49.506;10.400;2023-03-13T04:30:51;97168.41;;;8.23;80.00
9423;BME280;65863;49.506;10.400;2023-03-13T04:33:58;97187.41;;;8.24;80.43
9423;BME280;65863;49.506;10.400;2023-03-13T04:36:53;97196.19;;;8.36;80.37
9423;BME280;65863;49.506;10.400;2023-03-13T04:39:56;97183.31;;;8.25;80.90
9423;BME280;65863;49.506;10.400;2023-03-13T04:43:03;97185.94;;;8.31;81.23
9423;BME280;65863;49.506;10.400;2023-03-13T04:46:16;97161.13;;;8.27;81.52
9423;BME280;65863;49.506;10.400;2023-03-13T04:49:16;97069.78;;;7.76;81.39
9423;BME280;65863;49.506;10.400;2023-03-13T04:52:13;97143.44;;;8.33;81.32
9423;BME280;65863;49.506;10.400;2023-03-13T04:55:20;97169.75;;;8.53;81.11
9423;BME280;65863;49.506;10.400;2023-03-13T04:58:27;97162.09;;;8.69;80.87
9423;BME280;65863;49.506;10.400;2023-03-13T05:01:42;97154.63;;;8.71;80.64
9423;BME280;65863;49.506;10.400;2023-03-13T05:04:47;97135.25;;;8.73;80.16
9423;BME280;65863;49.506;10.400;2023-03-13T05:07:49;97156.66;;;8.86;80.17
9423;BME280;65863;49.506;10.400;2023-03-13T05:10:47;97112.84;;;8.81;79.81
9423;BME280;65863;49.506;10.400;2023-03-13T05:13:59;97129.38;;;9.02;79.79
9423;BME280;65863;49.506;10.400;2023-03-13T05:17:02;97134.94;;;9.10;79.67
9423;BME280;65863;49.506;10.400;2023-03-13T05:20:06;97096.78;;;8.89;80.40
9423;BME280;65863;49.506;10.400;2023-03-13T05:23:09;97093.78;;;8.95;80.84
9423;BME280;65863;49.506;10.400;2023-03-13T05:26:06;97128.06;;;9.11;81.64
9423;BME280;65863;49.506;10.400;2023-03-13T05:29:08;97034.00;;;8.44;82.23
9423;BME280;65863;49.506;10.400;2023-03-13T05:32:12;97067.19;;;8.55;82.87
9423;BME280;65863;49.506;10.400;2023-03-13T05:35:09;97043.16;;;8.44;83.89
9423;BME280;65863;49.506;10.400;2023-03-13T05:38:13;97122.50;;;8.95;84.50
9423;BME280;65863;49.506;10.400;2023-03-13T05:41:16;97057.50;;;8.49;85.18
9423;BME280;65863;49.506;10.400;2023-03-13T05:44:26;97066.63;;;8.41;86.24
9423;BME280;65863;49.506;10.400;2023-03-13T05:47:31;97002.94;;;8.01;86.79
9423;BME280;65863;49.506;10.400;2023-03-13T05:50:44;97026.03;;;8.17;87.08
9423;BME280;65863;49.506;10.400;2023-03-13T05:53:42;97021.16;;;8.18;87.45
9423;BME280;65863;49.506;10.400;2023-03-13T05:56:33;97094.78;;;8.67;87.75
9423;BME280;65863;49.506;10.400;2023-03-13T05:59:29;97023.06;;;8.15;87.95
9423;BME280;65863;49.506;10.400;2023-03-13T06:02:32;97116.56;;;8.76;87.96
9423;BME280;65863;49.506;10.400;2023-03-13T06:05:17;97029.94;;;8.30;88.15
9423;BME280;65863;49.506;10.400;2023-03-13T06:08:02;97067.38;;;8.57;88.39
9423;BME280;65863;49.506;10.400;2023-03-13T06:10:46;97094.53;;;8.80;88.01
9423;BME280;65863;49.506;10.400;2023-03-13T06:13:31;97120.09;;;8.92;88.14
9423;BME280;65863;49.506;10.400;2023-03-13T06:16:20;97014.28;;;8.26;87.88
9423;BME280;65863;49.506;10.400;2023-03-13T06:19:05;97048.91;;;8.54;87.87
9423;BME280;65863;49.506;10.400;2023-03-13T06:21:50;96973.28;;;8.06;87.86
9423;BME280;65863;49.506;10.400;2023-03-13T06:24:34;97032.13;;;8.54;87.52
9423;BME280;65863;49.506;10.400;2023-03-13T06:27:18;97099.94;;;8.93;87.13
9423;BME280;65863;49.506;10.400;2023-03-13T06:30:03;97066.56;;;8.88;87.33
9423;BME280;65863;49.506;10.400;2023-03-13T06:32:47;97035.78;;;8.80;87.11
9423;BME280;65863;49.506;10.400;2023-03-13T06:35:32;97088.84;;;9.11;87.05
9423;BME280;65863;49.506;10.400;2023-03-13T06:38:17;97059.97;;;8.93;87.04
9423;BME280;65863;49.506;10.400;2023-03-13T06:41:01;97080.81;;;9.15;86.88
9423;BME280;65863;49.506;10.400;2023-03-13T06:43:45;96979.38;;;8.51;86.75
9423;BME280;65863;49.506;10.400;2023-03-13T06:46:29;97092.72;;;9.23;86.94
9423;BME280;65863;49.506;10.400;2023-03-13T06:49:14;97049.69;;;9.03;86.92
9423;BME280;65863;49.506;10.400;2023-03-13T06:51:58;97084.06;;;9.37;86.86
9423;BME280;65863;49.506;10.400;2023-03-13T06:54:42;97064.47;;;9.37;86.60
9423;BME280;65863;49.506;10.400;2023-03-13T06:57:26;97041.81;;;9.17;86.68
9423;BME280;65863;49.506;10.400;2023-03-13T07:00:10;97053.63;;;9.41;86.70
9423;BME280;65863;49.506;10.400;2023-03-13T07:02:54;96970.69;;;8.79;86.31
9423;BME280;65863;49.506;10.400;2023-03-13T07:05:39;97003.72;;;9.14;86.24
9423;BME280;65863;49.506;10.400;2023-03-13T07:08:23;97066.81;;;9.56;86.05
9423;BME280;65863;49.506;10.400;2023-03-13T07:11:10;97095.38;;;9.87;85.84
9423;BME280;65863;49.506;10.400;2023-03-13T07:13:55;97097.03;;;9.90;85.89
9423;BME280;65863;49.506;10.400;2023-03-13T07:16:39;97061.09;;;9.71;85.69
9423;BME280;65863;49.506;10.400;2023-03-13T07:19:23;97020.88;;;9.51;85.25
9423;BME280;65863;49.506;10.400;2023-03-13T07:22:09;97039.06;;;9.68;85.15
9423;BME280;65863;49.506;10.400;2023-03-13T07:24:53;97023.41;;;9.64;85.44
9423;BME280;65863;49.506;10.400;2023-03-13T07:27:37;97105.72;;;10.02;85.30
9423;BME280;65863;49.506;10.400;2023-03-13T07:30:21;97087.25;;;9.99;85.39
9423;BME280;65863;49.506;10.400;2023-03-13T07:33:05;97029.75;;;9.65;85.60
9423;BME280;65863;49.506;10.400;2023-03-13T07:35:51;96915.00;;;8.99;85.49
9423;BME280;65863;49.506;10.400;2023-03-13T07:38:35;96961.72;;;9.47;85.84
9423;BME280;65863;49.506;10.400;2023-03-13T07:41:20;97054.75;;;10.21;86.30
9423;BME280;65863;49.506;10.400;2023-03-13T07:44:04;96998.75;;;9.88;86.08
9423;BME280;65863;49.506;10.400;2023-03-13T07:46:48;97028.25;;;10.14;85.98
9423;BME280;65863;49.506;10.400;2023-03-13T07:49:33;97066.34;;;10.43;86.34
9423;BME280;65863;49.506;10.400;2023-03-13T07:52:21;96994.91;;;10.01;86.09
9423;BME280;65863;49.506;10.400;2023-03-13T07:55:06;97069.16;;;10.43;86.56
9423;BME280;65863;49.506;10.400;2023-03-13T07:57:50;97084.78;;;10.54;86.69
9423;BME280;65863;49.506;10.400;2023-03-13T08:00:34;97011.31;;;10.05;86.52
9423;BME280;65863;49.506;10.400;2023-03-13T08:03:18;97021.25;;;10.23;86.54
9423;BME280;65863;49.506;10.400;2023-03-13T08:06:06;97010.88;;;10.33;86.64
9423;BME280;65863;49.506;10.400;2023-03-13T08:08:51;97044.09;;;10.62;86.50
9423;BME280;65863;49.506;10.400;2023-03-13T08:11:38;97056.06;;;10.63;86.39
9423;BME280;65863;49.506;10.400;2023-03-13T08:14:24;97074.63;;;10.76;86.41
9423;BME280;65863;49.506;10.400;2023-03-13T08:17:08;97054.97;;;10.76;86.07
9423;BME280;65863;49.506;10.400;2023-03-13T08:19:52;97044.34;;;10.74;85.90
9423;BME280;65863;49.506;10.400;2023-03-13T08:22:36;96979.97;;;10.41;85.76
9423;BME280;65863;49.506;10.400;2023-03-13T08:25:21;97055.66;;;11.01;85.85
9423;BME280;65863;49.506;10.400;2023-03-13T08:28:05;97004.44;;;10.76;85.55
9423;BME280;65863;49.506;10.400;2023-03-13T08:30:49;97003.69;;;10.93;85.54
9423;BME280;65863;49.506;10.400;2023-03-13T08:33:33;96992.44;;;11.10;85.23
9423;BME280;65863;49.506;10.400;2023-03-13T08:36:23;97025.16;;;11.43;84.58
9423;BME280;65863;49.506;10.400;2023-03-13T08:39:13;97058.09;;;11.60;83.65
9423;BME280;65863;49.506;10.400;2023-03-13T08:41:57;97009.03;;;11.43;83.75
9423;BME280;65863;49.506;10.400;2023-03-13T08:44:42;97049.31;;;11.83;83.21
9423;BME280;65863;49.506;10.400;2023-03-13T08:47:26;96988.69;;;11.62;83.07
9423;BME280;65863;49.506;10.400;2023-03-13T08:50:10;96995.13;;;11.73;82.65
9423;BME280;65863;49.506;10.400;2023-03-13T08:52:55;97017.16;;;12.13;82.00
9423;BME280;65863;49.506;10.400;2023-03-13T08:55:39;96965.31;;;11.97;81.36
9423;BME280;65863;49.506;10.400;2023-03-13T08:58:23;97012.19;;;12.51;80.74
9423;BME280;65863;49.506;10.400;2023-03-13T09:01:09;97009.09;;;12.56;80.05
9423;BME280;65863;49.506;10.400;2023-03-13T09:03:54;97030.13;;;12.65;79.32
9423;BME280;65863;49.506;10.400;2023-03-13T09:06:39;97040.38;;;12.70;79.23
9423;BME280;65863;49.506;10.400;2023-03-13T09:09:23;97019.31;;;12.52;78.90
9423;BME280;65863;49.506;10.400;2023-03-13T09:12:07;97034.13;;;12.72;78.77
9423;BME280;65863;49.506;10.400;2023-03-13T09:14:51;97021.66;;;12.55;78.57
9423;BME280;65863;49.506;10.400;2023-03-13T09:17:35;97013.66;;;12.71;78.77
9423;BME280;65863;49.506;10.400;2023-03-13T09:20:19;96943.91;;;12.31;78.24
9423;BME280;65863;49.506;10.400;2023-03-13T09:23:04;97023.13;;;13.05;78.25
9423;BME280;65863;49.506;10.400;2023-03-13T09:25:50;96992.94;;;12.77;77.58
9423;BME280;65863;49.506;10.400;2023-03-13T09:28:35;96994.72;;;12.62;77.34
9423;BME280;65863;49.506;10.400;2023-03-13T09:31:24;97045.69;;;13.05;77.56
9423;BME280;65863;49.506;10.400;2023-03-13T09:34:08;97046.00;;;12.90;77.28
9423;BME280;65863;49.506;10.400;2023-03-13T09:36:52;96968.34;;;12.28;77.29
9423;BME280;65863;49.506;10.400;2023-03-13T09:39:37;96980.50;;;12.40;77.64
9423;BME280;65863;49.506;10.400;2023-03-13T09:42:31;96961.38;;;12.19;77.82
9423;BME280;65863;49.506;10.400;2023-03-13T09:48:23;97019.47;;;12.64;78.18
9423;BME280;65863;49.506;10.400;2023-03-13T09:51:17;97036.97;;;12.82;78.54
9423;BME280;65863;49.506;10.400;2023-03-13T09:54:08;97034.13;;;12.72;78.24
9423;BME280;65863;49.506;10.400;2023-03-13T09:57:04;97019.63;;;12.56;78.18
9423;BME280;65863;49.506;10.400;2023-03-13T09:59:56;97073.56;;;12.82;78.24
9423;BME280;65863;49.506;10.400;2023-03-13T10:02:45;97029.22;;;12.63;78.09
9423;BME280;65863;49.506;10.400;2023-03-13T10:05:31;96951.41;;;12.09;78.19
9423;BME280;65863;49.506;10.400;2023-03-13T10:08:24;97004.94;;;12.38;77.72
9423;BME280;65863;49.506;10.400;2023-03-13T10:11:11;96995.59;;;12.35;77.42
9423;BME280;65863;49.506;10.400;2023-03-13T10:14:14;97048.78;;;12.51;77.40
9423;BME280;65863;49.506;10.400;2023-03-13T10:17:09;97040.03;;;12.47;77.43
9423;BME280;65863;49.506;10.400;2023-03-13T10:20:00;96983.69;;;12.08;76.66
9423;BME280;65863;49.506;10.400;2023-03-13T10:23:15;97047.47;;;12.52;76.48
9423;BME280;65863;49.506;10.400;2023-03-13T10:26:00;97024.91;;;12.32;76.53
9423;BME280;65863;49.506;10.400;2023-03-13T10:28:44;97027.13;;;12.34;76.70
9423;BME280;65863;49.506;10.400;2023-03-13T10:31:33;97031.00;;;12.48;77.04
9423;BME280;65863;49.506;10.400;2023-03-13T10:34:19;97050.09;;;12.50;76.99
9423;BME280;65863;49.506;10.400;2023-03-13T10:37:03;97036.78;;;12.60;77.17
9423;BME280;65863;49.506;10.400;2023-03-13T10:39:47;96984.06;;;12.51;76.58
9423;BME280;65863;49.506;10.400;2023-03-13T10:42:32;97005.81;;;12.99;76.18
9423;BME280;65863;49.506;10.400;2023-03-13T10:45:19;96988.91;;;12.99;75.04
9423;BME280;65863;49.506;10.400;2023-03-13T10:48:18;97010.94;;;13.42;74.49
9423;BME280;65863;49.506;10.400;2023-03-13T10:51:18;96930.78;;;13.04;74.05
9423;BME280;65863;49.506;10.400;2023-03-13T10:54:14;96959.31;;;13.39;73.33
9423;BME280;65863;49.506;10.400;2023-03-13T11:00:20;96968.41;;;13.69;72.24
9423;BME280;65863;49.506;10.400;2023-03-13T11:06:02;96981.16;;;13.70;72.23
9423;BME280;65863;49.506;10.400;2023-03-13T11:08:46;96970.75;;;13.41;72.09
9423;BME280;65863;49.506;10.400;2023-03-13T11:14:28;96989.84;;;13.53;72.18
9423;BME280;65863;49.506;10.400;2023-03-13T11:20:24;97008.06;;;13.62;72.41
9423;BME280;65863;49.506;10.400;2023-03-13T11:23:30;97004.94;;;13.67;72.41
9423;BME280;65863;49.506;10.400;2023-03-13T11:26:24;96991.47;;;13.56;72.47
9423;BME280;65863;49.506;10.400;2023-03-13T11:29:13;97004.34;;;13.69;72.72
9423;BME280;65863;49.506;10.400;2023-03-13T11:32:03;96981.44;;;13.74;72.78
9423;BME280;65863;49.506;10.400;2023-03-13T11:34:57;96998.00;;;13.90;72.69
9423;BME280;65863;49.506;10.400;2023-03-13T11:37:43;96999.34;;;13.89;72.07
9423;BME280;65863;49.506;10.400;2023-03-13T11:41:04;96987.88;;;13.97;71.89
9423;BME280;65863;49.506;10.400;2023-03-13T11:50:13;96949.94;;;15.31;69.19
9423;BME280;65863;49.506;10.400;2023-03-13T11:53:17;96882.97;;;15.81;67.59
9423;BME280;65863;49.506;10.400;2023-03-13T11:56:17;96923.25;;;16.93;64.97
9423;BME280;65863;49.506;10.400;2023-03-13T12:02:30;96934.94;;;16.24;62.63
9423;BME280;65863;49.506;10.400;2023-03-13T12:05:18;96930.44;;;15.95;63.34
9423;BME280;65863;49.506;10.400;2023-03-13T12:08:08;96914.94;;;15.72;64.01
9423;BME280;65863;49.506;10.400;2023-03-13T12:13:53;96894.19;;;16.17;64.08
9423;BME280;65863;49.506;10.400;2023-03-13T12:16:41;96919.22;;;16.46;63.61
9423;BME280;65863;49.506;10.400;2023-03-13T12:19:33;96894.31;;;16.57;63.11
9423;BME280;65863;49.506;10.400;2023-03-13T12:22:25;96893.31;;;16.90;62.63
9423;BME280;65863;49.506;10.400;2023-03-13T12:25:24;96878.75;;;17.09;61.60
9423;BME280;65863;49.506;10.400;2023-03-13T12:39:38;96835.34;;;17.32;60.23
9423;BME280;65863;49.506;10.400;2023-03-13T12:42:43;96838.28;;;17.48;60.65
9423;BME280;65863;49.506;10.400;2023-03-13T12:45:28;96831.00;;;17.59;60.73
9423;BME280;65863;49.506;10.400;2023-03-13T12:58:00;96812.31;;;17.40;59.99
9423;BME280;65863;49.506;10.400;2023-03-13T13:00:52;96791.41;;;17.19;60.16
9423;BME280;65863;49.506;10.400;2023-03-13T13:03:51;96770.13;;;17.32;60.27
9423;BME280;65863;49.506;10.400;2023-03-13T13:07:19;96773.31;;;17.82;60.08
9423;BME280;65863;49.506;10.400;2023-03-13T13:13:29;96759.00;;;17.80;58.41
9423;BME280;65863;49.506;10.400;2023-03-13T13:16:18;96776.88;;;17.97;58.72
9423;BME280;65863;49.506;10.400;2023-03-13T13:28:22;96715.13;;;17.53;58.44
9423;BME280;65863;49.506;10.400;2023-03-13T13:31:44;96739.34;;;17.84;58.97
9423;BME280;65863;49.506;10.400;2023-03-13T13:40:28;96713.53;;;18.08;59.90
9423;BME280;65863;49.506;10.400;2023-03-13T13:43:21;96685.53;;;18.16;58.86
9423;BME280;65863;49.506;10.400;2023-03-13T13:46:27;96686.31;;;18.03;59.08
9423;BME280;65863;49.506;10.400;2023-03-13T13:49:18;96692.09;;;18.05;58.68
9423;BME280;65863;49.506;10.400;2023-03-13T13:54:54;96692.44;;;17.97;58.01
9423;BME280;65863;49.506;10.400;2023-03-13T13:57:39;96657.16;;;17.86;58.42
9423;BME280;65863;49.506;10.400;2023-03-13T14:00:28;96647.69;;;18.12;57.93
9423;BME280;65863;49.506;10.400;2023-03-13T14:03:25;96636.88;;;18.08;56.08
9423;BME280;65863;49.506;10.400;2023-03-13T14:06:26;96661.91;;;18.59;55.17
9423;BME280;65863;49.506;10.400;2023-03-13T14:09:33;96642.66;;;18.26;55.51
9423;BME280;65863;49.506;10.400;2023-03-13T14:12:46;96667.00;;;18.15;55.30
9423;BME280;65863;49.506;10.400;2023-03-13T14:15:31;96632.28;;;18.01;55.97
9423;BME280;65863;49.506;10.400;2023-03-13T14:18:28;96642.81;;;18.14;56.16
9423;BME280;65863;49.506;10.400;2023-03-13T14:21:13;96644.31;;;18.15;56.38
9423;BME280;65863;49.506;10.400;2023-03-13T14:23:57;96627.47;;;17.89;56.69
9423;BME280;65863;49.506;10.400;2023-03-13T14:26:42;96621.53;;;17.83;56.16
9423;BME280;65863;49.506;10.400;2023-03-13T14:29:27;96552.91;;;17.41;55.71
9423;BME280;65863;49.506;10.400;2023-03-13T14:32:16;96538.03;;;17.27;55.68
9423;BME280;65863;49.506;10.400;2023-03-13T14:35:00;96627.59;;;17.92;55.53
9423;BME280;65863;49.506;10.400;2023-03-13T14:37:46;96624.94;;;17.96;55.72
9423;BME280;65863;49.506;10.400;2023-03-13T14:40:36;96557.94;;;17.43;55.64
9423;BME280;65863;49.506;10.400;2023-03-13T14:46:13;96580.53;;;18.18;55.72
9423;BME280;65863;49.506;10.400;2023-03-13T14:49:07;96568.44;;;18.34;55.35
9423;BME280;65863;49.506;10.400;2023-03-13T14:52:23;96500.16;;;17.98;54.18
9423;BME280;65863;49.506;10.400;2023-03-13T14:55:27;96571.75;;;18.12;54.74
9423;BME280;65863;49.506;10.400;2023-03-13T15:01:12;96541.78;;;18.41;55.00
9423;BME280;65863;49.506;10.400;2023-03-13T15:03:57;96502.38;;;18.49;54.58
9423;BME280;65863;49.506;10.400;2023-03-13T15:06:41;96451.84;;;18.30;53.97
9423;BME280;65863;49.506;10.400;2023-03-13T15:09:26;96502.09;;;18.77;53.90
9423;BME280;65863;49.506;10.400;2023-03-13T15:12:13;96510.72;;;18.45;53.56
9423;BME280;65863;49.506;10.400;2023-03-13T15:14:58;96498.06;;;18.48;54.05
9423;BME280;65863;49.506;10.400;2023-03-13T15:17:42;96500.47;;;18.72;54.10
9423;BME280;65863;49.506;10.400;2023-03-13T15:20:26;96427.34;;;18.38;54.15
9423;BME280;65863;49.506;10.400;2023-03-13T15:23:12;96467.25;;;18.76;54.44
9423;BME280;65863;49.506;10.400;2023-03-13T15:25:57;96462.63;;;18.85;54.45
9423;BME280;65863;49.506;10.400;2023-03-13T15:28:42;96393.44;;;18.61;53.70
9423;BME280;65863;49.506;10.400;2023-03-13T15:31:27;96411.97;;;18.98;53.05
9423;BME280;65863;49.506;10.400;2023-03-13T15:34:13;96402.72;;;19.15;52.59
9423;BME280;65863;49.506;10.400;2023-03-13T15:36:58;96374.72;;;18.89;52.33
9423;BME280;65863;49.506;10.400;2023-03-13T15:39:42;96425.38;;;19.13;51.96
9423;BME280;65863;49.506;10.400;2023-03-13T15:42:26;96391.25;;;19.13;52.24
9423;BME280;65863;49.506;10.400;2023-03-13T15:45:10;96374.47;;;19.01;52.16
9423;BME280;65863;49.506;10.400;2023-03-13T15:47:54;96387.44;;;19.06;52.24
9423;BME280;65863;49.506;10.400;2023-03-13T15:50:38;96368.44;;;18.75;52.04
9423;BME280;65863;49.506;10.400;2023-03-13T15:53:27;96381.44;;;18.80;52.39
9423;BME280;65863;49.506;10.400;2023-03-13T15:56:17;96320.56;;;18.31;52.95
9423;BME280;65863;49.506;10.400;2023-03-13T15:59:08;96388.59;;;18.63;53.11
9423;BME280;65863;49.506;10.400;2023-03-13T16:01:52;96370.78;;;18.63;53.46
9423;BME280;65863;49.506;10.400;2023-03-13T16:04:36;96345.72;;;18.21;53.45
9423;BME280;65863;49.506;10.400;2023-03-13T16:07:22;96356.13;;;17.98;53.88
9423;BME280;65863;49.506;10.400;2023-03-13T16:10:17;96371.78;;;17.99;55.06
9423;BME280;65863;49.506;10.400;2023-03-13T16:13:01;96358.06;;;17.94;54.82
9423;BME280;65863;49.506;10.400;2023-03-13T16:15:46;96345.66;;;18.03;55.13
9423;BME280;65863;49.506;10.400;2023-03-13T16:18:31;96354.19;;;18.03;55.06
9423;BME280;65863;49.506;10.400;2023-03-13T16:21:22;96307.03;;;17.62;55.50